sensor_id;sensor_type;location;lat;lon;timestamp;temperature;humidity
70294;DHT22;74367;35.280;-77.632;2024-01-30T00:00:15;12.16;59.04
70294;DHT22;74367;35.280;-77.632;2024-01-30T00:02:41;11.90;58.27
70294;DHT22;74367;35.280;-77.632;2024-01-30T00:05:08;11.69;59.35
70294;DHT22;74367;35.280;-77.632;2024-01-30T00:07:34;11.82;59.04
70294;DHT22;74367;35.280;-77.632;2024-01-30T00:10:00;12.15;59.20
70294;DHT22;74367;35.280;-77.632;2024-01-30T00:12:26;11.79;60.54
70294;DHT22;74367;35.280;-77.632;2024-01-30T00:14:52;11.62;58.73
70294;DHT22;74367;35.280;-77.632;2024-01-30T00:17:18;11.52;60.42
70294;DHT22;74367;35.280;-77.632;2024-01-30T00:19:46;11.78;59.50
70294;DHT22;74367;35.280;-77.632;2024-01-30T00:22:12;11.67;58.39
70294;DHT22;74367;35.280;-77.632;2024-01-30T00:24:38;11.69;59.04
70294;DHT22;74367;35.280;-77.632;2024-01-30T00:27:04;11.75;56.75
70294;DHT22;74367;35.280;-77.632;2024-01-30T00:29:30;11.58;55.94
70294;DHT22;74367;35.280;-77.632;2024-01-30T00:31:59;11.52;59.53
70294;DHT22;74367;35.280;-77.632;2024-01-30T00:34:25;11.67;57.91
70294;DHT22;74367;35.280;-77.632;2024-01-30T00:36:51;11.62;57.02
70294;DHT22;74367;35.280;-77.632;2024-01-30T00:39:17;11.54;59.65
70294;DHT22;74367;35.280;-77.632;2024-01-30T00:41:45;11.52;58.10
70294;DHT22;74367;35.280;-77.632;2024-01-30T00:44:11;11.40;60.27
70294;DHT22;74367;35.280;-77.632;2024-01-30T00:46:37;11.28;58.31
70294;DHT22;74367;35.280;-77.632;2024-01-30T00:49:02;11.35;59.56
70294;DHT22;74367;35.280;-77.632;2024-01-30T00:51:31;11.44;58.43
70294;DHT22;74367;35.280;-77.632;2024-01-30T00:53:57;11.27;58.40
70294;DHT22;74367;35.280;-77.632;2024-01-30T00:56:23;11.06;57.63
70294;DHT22;74367;35.280;-77.632;2024-01-30T00:58:49;11.17;57.84
70294;DHT22;74367;35.280;-77.632;2024-01-30T01:01:15;11.38;59.01
70294;DHT22;74367;35.280;-77.632;2024-01-30T01:03:41;11.47;57.40
70294;DHT22;74367;35.280;-77.632;2024-01-30T01:06:09;11.16;58.68
70294;DHT22;74367;35.280;-77.632;2024-01-30T01:08:35;11.16;58.89
70294;DHT22;74367;35.280;-77.632;2024-01-30T01:11:01;11.21;59.83
70294;DHT22;74367;35.280;-77.632;2024-01-30T01:13:29;11.27;57.72
70294;DHT22;74367;35.280;-77.632;2024-01-30T01:15:55;10.70;57.76
70294;DHT22;74367;35.280;-77.632;2024-01-30T01:18:21;11.00;59.56
70294;DHT22;74367;35.280;-77.632;2024-01-30T01:20:47;11.01;57.79
70294;DHT22;74367;35.280;-77.632;2024-01-30T01:23:13;10.99;59.49
70294;DHT22;74367;35.280;-77.632;2024-01-30T01:25:39;11.03;60.12
70294;DHT22;74367;35.280;-77.632;2024-01-30T01:28:05;10.92;58.59
70294;DHT22;74367;35.280;-77.632;2024-01-30T01:30:31;11.11;60.57
70294;DHT22;74367;35.280;-77.632;2024-01-30T01:32:57;10.86;60.70
70294;DHT22;74367;35.280;-77.632;2024-01-30T01:35:26;10.83;62.64
70294;DHT22;74367;35.280;-77.632;2024-01-30T01:37:54;10.48;62.34
70294;DHT22;74367;35.280;-77.632;2024-01-30T01:40:22;10.86;59.70
70294;DHT22;74367;35.280;-77.632;2024-01-30T01:42:50;10.58;60.47
70294;DHT22;74367;35.280;-77.632;2024-01-30T01:45:18;10.66;60.49
70294;DHT22;74367;35.280;-77.632;2024-01-30T01:47:48;10.59;60.79
70294;DHT22;74367;35.280;-77.632;2024-01-30T01:50:16;10.44;61.89
70294;DHT22;74367;35.280;-77.632;2024-01-30T01:52:50;10.59;61.35
70294;DHT22;74367;35.280;-77.632;2024-01-30T01:55:18;10.08;60.66
70294;DHT22;74367;35.280;-77.632;2024-01-30T01:57:50;10.31;60.04
70294;DHT22;74367;35.280;-77.632;2024-01-30T02:00:17;10.24;62.46
70294;DHT22;74367;35.280;-77.632;2024-01-30T02:02:45;9.95;62.72
70294;DHT22;74367;35.280;-77.632;2024-01-30T02:05:12;10.02;63.07
70294;DHT22;74367;35.280;-77.632;2024-01-30T02:07:38;9.87;63.15
70294;DHT22;74367;35.280;-77.632;2024-01-30T02:10:07;9.98;64.19
70294;DHT22;74367;35.280;-77.632;2024-01-30T02:12:33;9.86;63.00
70294;DHT22;74367;35.280;-77.632;2024-01-30T02:14:59;9.43;63.66
70294;DHT22;74367;35.280;-77.632;2024-01-30T02:17:25;9.40;65.38
70294;DHT22;74367;35.280;-77.632;2024-01-30T02:19:52;9.31;65.60
70294;DHT22;74367;35.280;-77.632;2024-01-30T02:22:19;8.88;64.72
70294;DHT22;74367;35.280;-77.632;2024-01-30T02:24:46;8.50;66.20
70294;DHT22;74367;35.280;-77.632;2024-01-30T02:27:12;8.85;66.47
70294;DHT22;74367;35.280;-77.632;2024-01-30T02:29:38;8.59;66.82
70294;DHT22;74367;35.280;-77.632;2024-01-30T02:32:04;9.07;65.46
70294;DHT22;74367;35.280;-77.632;2024-01-30T02:34:31;9.11;65.65
70294;DHT22;74367;35.280;-77.632;2024-01-30T02:36:57;9.10;65.37
70294;DHT22;74367;35.280;-77.632;2024-01-30T02:39:23;8.94;64.03
70294;DHT22;74367;35.280;-77.632;2024-01-30T02:41:49;8.42;66.37
70294;DHT22;74367;35.280;-77.632;2024-01-30T02:44:15;8.49;66.44
70294;DHT22;74367;35.280;-77.632;2024-01-30T02:46:40;8.73;66.61
70294;DHT22;74367;35.280;-77.632;2024-01-30T02:49:06;8.67;66.22
70294;DHT22;74367;35.280;-77.632;2024-01-30T02:51:32;8.81;65.33
70294;DHT22;74367;35.280;-77.632;2024-01-30T02:53:59;8.39;66.23
70294;DHT22;74367;35.280;-77.632;2024-01-30T02:56:25;8.43;66.72
70294;DHT22;74367;35.280;-77.632;2024-01-30T02:58:51;8.64;66.43
70294;DHT22;74367;35.280;-77.632;2024-01-30T03:01:17;8.78;66.98
70294;DHT22;74367;35.280;-77.632;2024-01-30T03:03:42;8.07;67.15
70294;DHT22;74367;35.280;-77.632;2024-01-30T03:06:08;7.70;69.15
70294;DHT22;74367;35.280;-77.632;2024-01-30T03:08:35;7.95;68.20
70294;DHT22;74367;35.280;-77.632;2024-01-30T03:11:01;8.21;67.23
70294;DHT22;74367;35.280;-77.632;2024-01-30T03:13:27;8.70;67.25
70294;DHT22;74367;35.280;-77.632;2024-01-30T03:15:53;8.54;65.37
70294;DHT22;74367;35.280;-77.632;2024-01-30T03:18:19;8.74;65.28
70294;DHT22;74367;35.280;-77.632;2024-01-30T03:20:45;9.10;64.08
70294;DHT22;74367;35.280;-77.632;2024-01-30T03:23:10;8.98;63.48
70294;DHT22;74367;35.280;-77.632;2024-01-30T03:25:36;9.02;64.72
70294;DHT22;74367;35.280;-77.632;2024-01-30T03:28:02;9.07;63.21
70294;DHT22;74367;35.280;-77.632;2024-01-30T03:30:29;9.19;63.54
70294;DHT22;74367;35.280;-77.632;2024-01-30T03:32:55;9.38;62.23
70294;DHT22;74367;35.280;-77.632;2024-01-30T03:35:21;9.12;62.48
70294;DHT22;74367;35.280;-77.632;2024-01-30T03:37:47;9.16;64.36
70294;DHT22;74367;35.280;-77.632;2024-01-30T03:40:13;9.07;63.92
70294;DHT22;74367;35.280;-77.632;2024-01-30T03:42:39;8.87;61.56
70294;DHT22;74367;35.280;-77.632;2024-01-30T03:45:05;9.01;61.09
70294;DHT22;74367;35.280;-77.632;2024-01-30T03:47:31;8.97;62.30
70294;DHT22;74367;35.280;-77.632;2024-01-30T03:49:57;9.15;63.42
70294;DHT22;74367;35.280;-77.632;2024-01-30T03:52:23;8.88;61.37
70294;DHT22;74367;35.280;-77.632;2024-01-30T03:54:49;8.95;62.13
70294;DHT22;74367;35.280;-77.632;2024-01-30T03:57:15;9.05;63.36
70294;DHT22;74367;35.280;-77.632;2024-01-30T03:59:44;8.88;63.05
70294;DHT22;74367;35.280;-77.632;2024-01-30T04:02:10;8.80;62.45
70294;DHT22;74367;35.280;-77.632;2024-01-30T04:04:37;8.40;62.60
70294;DHT22;74367;35.280;-77.632;2024-01-30T04:07:03;8.32;64.28
70294;DHT22;74367;35.280;-77.632;2024-01-30T04:09:29;7.98;64.38
70294;DHT22;74367;35.280;-77.632;2024-01-30T04:11:55;7.58;66.47
70294;DHT22;74367;35.280;-77.632;2024-01-30T04:14:21;7.41;66.93
70294;DHT22;74367;35.280;-77.632;2024-01-30T04:16:47;7.86;65.73
70294;DHT22;74367;35.280;-77.632;2024-01-30T04:19:13;8.17;65.67
70294;DHT22;74367;35.280;-77.632;2024-01-30T04:21:39;8.29;65.14
70294;DHT22;74367;35.280;-77.632;2024-01-30T04:24:07;7.51;66.98
70294;DHT22;74367;35.280;-77.632;2024-01-30T04:26:33;7.41;67.00
70294;DHT22;74367;35.280;-77.632;2024-01-30T04:28:59;7.31;67.86
70294;DHT22;74367;35.280;-77.632;2024-01-30T04:31:25;7.89;67.32
70294;DHT22;74367;35.280;-77.632;2024-01-30T04:33:51;7.99;66.42
70294;DHT22;74367;35.280;-77.632;2024-01-30T04:36:17;7.38;66.77
70294;DHT22;74367;35.280;-77.632;2024-01-30T04:38:43;7.26;67.09
70294;DHT22;74367;35.280;-77.632;2024-01-30T04:41:09;7.22;66.72
70294;DHT22;74367;35.280;-77.632;2024-01-30T04:43:35;7.22;67.88
70294;DHT22;74367;35.280;-77.632;2024-01-30T04:46:01;7.27;67.62
70294;DHT22;74367;35.280;-77.632;2024-01-30T04:48:27;6.62;69.00
70294;DHT22;74367;35.280;-77.632;2024-01-30T04:50:53;6.71;68.09
70294;DHT22;74367;35.280;-77.632;2024-01-30T04:53:20;7.20;69.79
70294;DHT22;74367;35.280;-77.632;2024-01-30T04:55:46;7.58;67.48
70294;DHT22;74367;35.280;-77.632;2024-01-30T04:58:12;7.86;65.29
70294;DHT22;74367;35.280;-77.632;2024-01-30T05:00:38;7.33;66.50
70294;DHT22;74367;35.280;-77.632;2024-01-30T05:03:04;7.79;66.19
70294;DHT22;74367;35.280;-77.632;2024-01-30T05:05:30;8.07;66.12
70294;DHT22;74367;35.280;-77.632;2024-01-30T05:07:55;8.29;66.04
70294;DHT22;74367;35.280;-77.632;2024-01-30T05:10:21;8.10;66.94
70294;DHT22;74367;35.280;-77.632;2024-01-30T05:12:47;8.23;65.55
70294;DHT22;74367;35.280;-77.632;2024-01-30T05:15:13;8.06;66.65
70294;DHT22;74367;35.280;-77.632;2024-01-30T05:17:39;8.28;67.92
70294;DHT22;74367;35.280;-77.632;2024-01-30T05:20:06;7.95;68.85
70294;DHT22;74367;35.280;-77.632;2024-01-30T05:22:32;8.05;68.94
70294;DHT22;74367;35.280;-77.632;2024-01-30T05:24:58;8.37;68.14
70294;DHT22;74367;35.280;-77.632;2024-01-30T05:27:25;8.28;68.54
70294;DHT22;74367;35.280;-77.632;2024-01-30T05:29:51;8.17;69.91
70294;DHT22;74367;35.280;-77.632;2024-01-30T05:32:17;8.36;69.88
70294;DHT22;74367;35.280;-77.632;2024-01-30T05:34:44;8.16;70.60
70294;DHT22;74367;35.280;-77.632;2024-01-30T05:37:10;8.21;70.64
70294;DHT22;74367;35.280;-77.632;2024-01-30T05:39:40;8.17;71.14
70294;DHT22;74367;35.280;-77.632;2024-01-30T05:42:06;7.95;70.62
70294;DHT22;74367;35.280;-77.632;2024-01-30T05:44:31;7.88;71.98
70294;DHT22;74367;35.280;-77.632;2024-01-30T05:46:57;7.86;72.10
70294;DHT22;74367;35.280;-77.632;2024-01-30T05:49:23;7.84;71.77
70294;DHT22;74367;35.280;-77.632;2024-01-30T05:51:49;7.55;72.20
70294;DHT22;74367;35.280;-77.632;2024-01-30T05:54:15;7.48;72.19
70294;DHT22;74367;35.280;-77.632;2024-01-30T05:56:41;6.97;73.36
70294;DHT22;74367;35.280;-77.632;2024-01-30T05:59:07;7.09;73.81
70294;DHT22;74367;35.280;-77.632;2024-01-30T06:01:33;6.56;76.24
70294;DHT22;74367;35.280;-77.632;2024-01-30T06:04:01;6.71;75.39
70294;DHT22;74367;35.280;-77.632;2024-01-30T06:06:27;6.21;76.98
70294;DHT22;74367;35.280;-77.632;2024-01-30T06:08:53;6.55;75.68
70294;DHT22;74367;35.280;-77.632;2024-01-30T06:11:21;6.16;76.86
70294;DHT22;74367;35.280;-77.632;2024-01-30T06:13:47;6.18;76.95
70294;DHT22;74367;35.280;-77.632;2024-01-30T06:16:13;6.09;76.61
70294;DHT22;74367;35.280;-77.632;2024-01-30T06:18:39;5.89;77.38
70294;DHT22;74367;35.280;-77.632;2024-01-30T06:21:05;5.77;78.35
70294;DHT22;74367;35.280;-77.632;2024-01-30T06:23:33;5.70;77.53
70294;DHT22;74367;35.280;-77.632;2024-01-30T06:25:59;5.72;77.02
70294;DHT22;74367;35.280;-77.632;2024-01-30T06:28:25;5.52;78.27
70294;DHT22;74367;35.280;-77.632;2024-01-30T06:30:51;5.96;76.98
70294;DHT22;74367;35.280;-77.632;2024-01-30T06:33:17;5.60;78.35
70294;DHT22;74367;35.280;-77.632;2024-01-30T06:35:42;6.13;77.03
70294;DHT22;74367;35.280;-77.632;2024-01-30T06:38:11;6.48;76.03
70294;DHT22;74367;35.280;-77.632;2024-01-30T06:40:37;6.48;75.50
70294;DHT22;74367;35.280;-77.632;2024-01-30T06:43:04;6.06;77.10
70294;DHT22;74367;35.280;-77.632;2024-01-30T06:45:30;5.79;77.43
70294;DHT22;74367;35.280;-77.632;2024-01-30T06:47:56;5.75;77.40
70294;DHT22;74367;35.280;-77.632;2024-01-30T06:50:22;5.87;76.93
70294;DHT22;74367;35.280;-77.632;2024-01-30T06:52:48;5.62;78.47
70294;DHT22;74367;35.280;-77.632;2024-01-30T06:55:14;5.96;78.52
70294;DHT22;74367;35.280;-77.632;2024-01-30T06:57:40;6.59;75.64
70294;DHT22;74367;35.280;-77.632;2024-01-30T07:00:06;5.21;78.92
70294;DHT22;74367;35.280;-77.632;2024-01-30T07:02:32;4.97;79.75
70294;DHT22;74367;35.280;-77.632;2024-01-30T07:04:58;5.20;79.94
70294;DHT22;74367;35.280;-77.632;2024-01-30T07:07:24;4.72;80.92
70294;DHT22;74367;35.280;-77.632;2024-01-30T07:09:50;4.90;79.73
70294;DHT22;74367;35.280;-77.632;2024-01-30T07:12:22;4.56;81.48
70294;DHT22;74367;35.280;-77.632;2024-01-30T07:14:50;4.97;80.98
70294;DHT22;74367;35.280;-77.632;2024-01-30T07:17:16;4.42;81.22
70294;DHT22;74367;35.280;-77.632;2024-01-30T07:19:42;4.48;81.35
70294;DHT22;74367;35.280;-77.632;2024-01-30T07:22:08;4.29;82.39
70294;DHT22;74367;35.280;-77.632;2024-01-30T07:24:34;4.08;82.24
70294;DHT22;74367;35.280;-77.632;2024-01-30T07:27:01;4.65;80.94
70294;DHT22;74367;35.280;-77.632;2024-01-30T07:29:27;4.01;82.01
70294;DHT22;74367;35.280;-77.632;2024-01-30T07:31:53;3.85;82.01
70294;DHT22;74367;35.280;-77.632;2024-01-30T07:34:19;3.70;82.73
70294;DHT22;74367;35.280;-77.632;2024-01-30T07:36:45;4.39;81.35
70294;DHT22;74367;35.280;-77.632;2024-01-30T07:39:12;4.18;81.54
70294;DHT22;74367;35.280;-77.632;2024-01-30T07:41:38;4.76;79.54
70294;DHT22;74367;35.280;-77.632;2024-01-30T07:44:04;3.97;81.49
70294;DHT22;74367;35.280;-77.632;2024-01-30T07:46:30;4.25;81.09
70294;DHT22;74367;35.280;-77.632;2024-01-30T07:48:56;3.94;81.76
70294;DHT22;74367;35.280;-77.632;2024-01-30T07:51:22;4.28;81.87
70294;DHT22;74367;35.280;-77.632;2024-01-30T07:53:51;4.28;80.60
70294;DHT22;74367;35.280;-77.632;2024-01-30T07:56:17;4.05;81.19
70294;DHT22;74367;35.280;-77.632;2024-01-30T07:58:43;4.14;80.98
70294;DHT22;74367;35.280;-77.632;2024-01-30T08:01:10;4.36;81.32
70294;DHT22;74367;35.280;-77.632;2024-01-30T08:03:36;4.66;80.13
70294;DHT22;74367;35.280;-77.632;2024-01-30T08:06:02;4.06;81.11
70294;DHT22;74367;35.280;-77.632;2024-01-30T08:08:28;4.46;80.76
70294;DHT22;74367;35.280;-77.632;2024-01-30T08:10:54;4.45;79.53
70294;DHT22;74367;35.280;-77.632;2024-01-30T08:13:20;3.76;81.06
70294;DHT22;74367;35.280;-77.632;2024-01-30T08:15:46;4.05;81.47
70294;DHT22;74367;35.280;-77.632;2024-01-30T08:18:12;3.99;81.88
70294;DHT22;74367;35.280;-77.632;2024-01-30T08:20:40;3.49;82.64
70294;DHT22;74367;35.280;-77.632;2024-01-30T08:23:07;3.46;82.86
70294;DHT22;74367;35.280;-77.632;2024-01-30T08:25:32;3.30;82.70
70294;DHT22;74367;35.280;-77.632;2024-01-30T08:27:58;3.66;82.67
70294;DHT22;74367;35.280;-77.632;2024-01-30T08:30:25;3.33;83.57
70294;DHT22;74367;35.280;-77.632;2024-01-30T08:32:51;3.13;84.05
70294;DHT22;74367;35.280;-77.632;2024-01-30T08:35:17;3.04;84.30
70294;DHT22;74367;35.280;-77.632;2024-01-30T08:37:43;3.08;84.35
70294;DHT22;74367;35.280;-77.632;2024-01-30T08:40:10;3.32;83.69
70294;DHT22;74367;35.280;-77.632;2024-01-30T08:42:36;3.59;83.39
70294;DHT22;74367;35.280;-77.632;2024-01-30T08:45:02;3.84;82.72
70294;DHT22;74367;35.280;-77.632;2024-01-30T08:47:30;4.31;81.41
70294;DHT22;74367;35.280;-77.632;2024-01-30T08:49:56;4.56;79.97
70294;DHT22;74367;35.280;-77.632;2024-01-30T08:52:22;4.72;79.19
70294;DHT22;74367;35.280;-77.632;2024-01-30T08:54:48;4.97;78.93
70294;DHT22;74367;35.280;-77.632;2024-01-30T08:57:14;4.95;78.05
70294;DHT22;74367;35.280;-77.632;2024-01-30T08:59:40;5.01;77.89
70294;DHT22;74367;35.280;-77.632;2024-01-30T09:02:06;5.15;77.32
70294;DHT22;74367;35.280;-77.632;2024-01-30T09:04:32;5.25;76.66
70294;DHT22;74367;35.280;-77.632;2024-01-30T09:06:58;4.79;78.58
70294;DHT22;74367;35.280;-77.632;2024-01-30T09:09:24;4.67;78.80
70294;DHT22;74367;35.280;-77.632;2024-01-30T09:11:50;4.73;79.35
70294;DHT22;74367;35.280;-77.632;2024-01-30T09:14:16;4.35;79.43
70294;DHT22;74367;35.280;-77.632;2024-01-30T09:16:41;4.38;80.45
70294;DHT22;74367;35.280;-77.632;2024-01-30T09:19:07;4.45;79.42
70294;DHT22;74367;35.280;-77.632;2024-01-30T09:21:34;4.38;80.77
70294;DHT22;74367;35.280;-77.632;2024-01-30T09:24:03;3.93;80.32
70294;DHT22;74367;35.280;-77.632;2024-01-30T09:26:29;4.26;80.50
70294;DHT22;74367;35.280;-77.632;2024-01-30T09:28:56;4.02;80.66
70294;DHT22;74367;35.280;-77.632;2024-01-30T09:31:21;3.73;81.71
70294;DHT22;74367;35.280;-77.632;2024-01-30T09:33:47;4.16;80.33
70294;DHT22;74367;35.280;-77.632;2024-01-30T09:36:14;3.83;80.29
70294;DHT22;74367;35.280;-77.632;2024-01-30T09:38:41;3.80;81.66
70294;DHT22;74367;35.280;-77.632;2024-01-30T09:41:09;3.69;81.47
70294;DHT22;74367;35.280;-77.632;2024-01-30T09:43:38;3.35;82.24
70294;DHT22;74367;35.280;-77.632;2024-01-30T09:46:05;3.15;82.39
70294;DHT22;74367;35.280;-77.632;2024-01-30T09:48:32;3.25;82.48
70294;DHT22;74367;35.280;-77.632;2024-01-30T09:50:59;3.42;81.78
70294;DHT22;74367;35.280;-77.632;2024-01-30T09:53:25;3.76;80.65
70294;DHT22;74367;35.280;-77.632;2024-01-30T09:55:52;3.60;81.23
70294;DHT22;74367;35.280;-77.632;2024-01-30T09:58:18;3.56;81.23
70294;DHT22;74367;35.280;-77.632;2024-01-30T10:00:44;3.77;80.26
70294;DHT22;74367;35.280;-77.632;2024-01-30T10:03:09;4.15;79.44
70294;DHT22;74367;35.280;-77.632;2024-01-30T10:05:36;3.90;79.42
70294;DHT22;74367;35.280;-77.632;2024-01-30T10:08:07;3.66;79.68
70294;DHT22;74367;35.280;-77.632;2024-01-30T10:10:34;3.29;81.39
70294;DHT22;74367;35.280;-77.632;2024-01-30T10:13:01;3.63;80.81
70294;DHT22;74367;35.280;-77.632;2024-01-30T10:15:28;3.70;81.21
70294;DHT22;74367;35.280;-77.632;2024-01-30T10:17:54;3.69;79.67
70294;DHT22;74367;35.280;-77.632;2024-01-30T10:20:20;2.70;82.35
70294;DHT22;74367;35.280;-77.632;2024-01-30T10:22:48;2.85;82.81
70294;DHT22;74367;35.280;-77.632;2024-01-30T10:25:15;2.81;82.25
70294;DHT22;74367;35.280;-77.632;2024-01-30T10:27:41;2.54;83.19
70294;DHT22;74367;35.280;-77.632;2024-01-30T10:30:08;2.99;82.76
70294;DHT22;74367;35.280;-77.632;2024-01-30T10:32:34;3.62;80.63
70294;DHT22;74367;35.280;-77.632;2024-01-30T10:35:01;3.77;80.26
70294;DHT22;74367;35.280;-77.632;2024-01-30T10:37:28;3.77;79.49
70294;DHT22;74367;35.280;-77.632;2024-01-30T10:40:04;3.50;80.67
70294;DHT22;74367;35.280;-77.632;2024-01-30T10:42:36;2.83;82.10
70294;DHT22;74367;35.280;-77.632;2024-01-30T10:45:13;2.89;82.29
70294;DHT22;74367;35.280;-77.632;2024-01-30T10:47:43;3.35;81.61
70294;DHT22;74367;35.280;-77.632;2024-01-30T10:50:10;3.05;82.79
70294;DHT22;74367;35.280;-77.632;2024-01-30T10:52:36;2.91;81.40
70294;DHT22;74367;35.280;-77.632;2024-01-30T10:55:04;2.61;82.53
70294;DHT22;74367;35.280;-77.632;2024-01-30T10:57:34;3.04;82.14
70294;DHT22;74367;35.280;-77.632;2024-01-30T11:00:12;2.88;81.23
70294;DHT22;74367;35.280;-77.632;2024-01-30T11:02:40;3.23;80.92
70294;DHT22;74367;35.280;-77.632;2024-01-30T11:05:07;3.05;80.87
70294;DHT22;74367;35.280;-77.632;2024-01-30T11:07:34;3.06;82.54
70294;DHT22;74367;35.280;-77.632;2024-01-30T11:12:33;2.78;81.59
70294;DHT22;74367;35.280;-77.632;2024-01-30T11:15:15;2.80;82.35
70294;DHT22;74367;35.280;-77.632;2024-01-30T11:20:27;2.77;82.16
70294;DHT22;74367;35.280;-77.632;2024-01-30T11:22:56;2.64;81.98
70294;DHT22;74367;35.280;-77.632;2024-01-30T11:25:23;3.15;80.91
70294;DHT22;74367;35.280;-77.632;2024-01-30T11:27:53;3.37;80.40
70294;DHT22;74367;35.280;-77.632;2024-01-30T11:30:30;2.96;80.30
70294;DHT22;74367;35.280;-77.632;2024-01-30T11:33:05;3.09;80.26
70294;DHT22;74367;35.280;-77.632;2024-01-30T11:35:43;3.62;80.12
70294;DHT22;74367;35.280;-77.632;2024-01-30T11:38:14;3.84;79.30
70294;DHT22;74367;35.280;-77.632;2024-01-30T11:40:40;3.76;78.82
70294;DHT22;74367;35.280;-77.632;2024-01-30T11:43:07;3.88;78.46
70294;DHT22;74367;35.280;-77.632;2024-01-30T11:45:35;3.40;79.24
70294;DHT22;74367;35.280;-77.632;2024-01-30T11:48:02;3.78;79.03
70294;DHT22;74367;35.280;-77.632;2024-01-30T11:50:31;3.30;79.40
70294;DHT22;74367;35.280;-77.632;2024-01-30T11:52:59;3.39;79.31
70294;DHT22;74367;35.280;-77.632;2024-01-30T11:55:25;3.43;78.62
70294;DHT22;74367;35.280;-77.632;2024-01-30T11:57:54;3.66;78.78
70294;DHT22;74367;35.280;-77.632;2024-01-30T12:00:20;3.73;78.49
70294;DHT22;74367;35.280;-77.632;2024-01-30T12:02:53;3.83;77.57
70294;DHT22;74367;35.280;-77.632;2024-01-30T12:05:24;3.06;79.24
70294;DHT22;74367;35.280;-77.632;2024-01-30T12:07:50;3.44;78.83
70294;DHT22;74367;35.280;-77.632;2024-01-30T12:10:16;3.08;79.59
70294;DHT22;74367;35.280;-77.632;2024-01-30T12:12:46;3.32;78.84
70294;DHT22;74367;35.280;-77.632;2024-01-30T12:15:13;3.57;79.14
70294;DHT22;74367;35.280;-77.632;2024-01-30T12:17:40;3.36;79.26
70294;DHT22;74367;35.280;-77.632;2024-01-30T12:20:24;3.59;78.47
70294;DHT22;74367;35.280;-77.632;2024-01-30T12:22:50;3.73;78.13
70294;DHT22;74367;35.280;-77.632;2024-01-30T12:25:20;3.56;78.45
70294;DHT22;74367;35.280;-77.632;2024-01-30T12:27:48;3.67;77.76
70294;DHT22;74367;35.280;-77.632;2024-01-30T12:30:18;3.77;77.54
70294;DHT22;74367;35.280;-77.632;2024-01-30T12:32:47;3.83;77.39
70294;DHT22;74367;35.280;-77.632;2024-01-30T12:35:17;3.37;78.01
70294;DHT22;74367;35.280;-77.632;2024-01-30T12:37:44;3.52;78.33
70294;DHT22;74367;35.280;-77.632;2024-01-30T12:40:12;3.54;79.15
70294;DHT22;74367;35.280;-77.632;2024-01-30T12:42:41;3.32;78.95
70294;DHT22;74367;35.280;-77.632;2024-01-30T12:45:13;3.43;78.98
70294;DHT22;74367;35.280;-77.632;2024-01-30T12:47:41;3.70;78.49
70294;DHT22;74367;35.280;-77.632;2024-01-30T12:50:07;3.83;78.19
70294;DHT22;74367;35.280;-77.632;2024-01-30T12:52:35;3.49;78.87
70294;DHT22;74367;35.280;-77.632;2024-01-30T12:55:01;3.88;78.66
70294;DHT22;74367;35.280;-77.632;2024-01-30T12:57:29;3.76;77.95
70294;DHT22;74367;35.280;-77.632;2024-01-30T12:59:55;5.08;74.62
70294;DHT22;74367;35.280;-77.632;2024-01-30T13:02:21;5.18;74.73
70294;DHT22;74367;35.280;-77.632;2024-01-30T13:04:48;5.55;73.30
70294;DHT22;74367;35.280;-77.632;2024-01-30T13:07:14;5.55;73.73
70294;DHT22;74367;35.280;-77.632;2024-01-30T13:09:40;5.03;74.52
70294;DHT22;74367;35.280;-77.632;2024-01-30T13:12:06;6.59;71.34
70294;DHT22;74367;35.280;-77.632;2024-01-30T13:14:32;7.55;65.81
70294;DHT22;74367;35.280;-77.632;2024-01-30T13:16:58;6.91;69.49
70294;DHT22;74367;35.280;-77.632;2024-01-30T13:19:27;6.40;71.21
70294;DHT22;74367;35.280;-77.632;2024-01-30T13:21:53;6.37;69.88
70294;DHT22;74367;35.280;-77.632;2024-01-30T13:24:19;6.35;71.48
70294;DHT22;74367;35.280;-77.632;2024-01-30T13:26:49;7.44;68.39
70294;DHT22;74367;35.280;-77.632;2024-01-30T13:29:15;8.53;64.12
70294;DHT22;74367;35.280;-77.632;2024-01-30T13:31:40;9.21;62.33
70294;DHT22;74367;35.280;-77.632;2024-01-30T13:34:07;10.34;58.29
70294;DHT22;74367;35.280;-77.632;2024-01-30T13:36:33;10.86;57.12
70294;DHT22;74367;35.280;-77.632;2024-01-30T13:38:59;10.90;57.40
70294;DHT22;74367;35.280;-77.632;2024-01-30T13:41:25;10.30;58.11
70294;DHT22;74367;35.280;-77.632;2024-01-30T13:43:51;8.46;62.33
70294;DHT22;74367;35.280;-77.632;2024-01-30T13:46:17;8.06;64.26
70294;DHT22;74367;35.280;-77.632;2024-01-30T13:48:43;7.84;65.06
70294;DHT22;74367;35.280;-77.632;2024-01-30T13:51:09;7.62;66.55
70294;DHT22;74367;35.280;-77.632;2024-01-30T13:53:36;7.81;65.00
70294;DHT22;74367;35.280;-77.632;2024-01-30T13:56:02;8.23;64.21
70294;DHT22;74367;35.280;-77.632;2024-01-30T13:58:28;8.05;64.91
70294;DHT22;74367;35.280;-77.632;2024-01-30T14:00:54;7.79;65.70
70294;DHT22;74367;35.280;-77.632;2024-01-30T14:03:20;8.64;63.06
70294;DHT22;74367;35.280;-77.632;2024-01-30T14:05:46;8.87;62.26
70294;DHT22;74367;35.280;-77.632;2024-01-30T14:08:12;8.63;63.55
70294;DHT22;74367;35.280;-77.632;2024-01-30T14:10:38;9.21;62.14
70294;DHT22;74367;35.280;-77.632;2024-01-30T14:13:04;11.28;55.88
70294;DHT22;74367;35.280;-77.632;2024-01-30T14:15:30;11.61;53.42
70294;DHT22;74367;35.280;-77.632;2024-01-30T14:17:56;10.69;57.60
70294;DHT22;74367;35.280;-77.632;2024-01-30T14:20:22;10.44;58.04
70294;DHT22;74367;35.280;-77.632;2024-01-30T14:22:48;9.23;61.14
70294;DHT22;74367;35.280;-77.632;2024-01-30T14:25:14;9.43;60.78
70294;DHT22;74367;35.280;-77.632;2024-01-30T14:27:41;9.01;61.96
70294;DHT22;74367;35.280;-77.632;2024-01-30T14:30:10;10.41;59.74
70294;DHT22;74367;35.280;-77.632;2024-01-30T14:32:36;12.03;54.32
70294;DHT22;74367;35.280;-77.632;2024-01-30T14:35:04;12.33;53.84
70294;DHT22;74367;35.280;-77.632;2024-01-30T14:37:30;11.13;55.26
70294;DHT22;74367;35.280;-77.632;2024-01-30T14:39:56;9.73;59.56
70294;DHT22;74367;35.280;-77.632;2024-01-30T14:42:22;9.32;61.57
70294;DHT22;74367;35.280;-77.632;2024-01-30T14:44:48;9.39;61.08
70294;DHT22;74367;35.280;-77.632;2024-01-30T14:47:14;10.14;59.33
70294;DHT22;74367;35.280;-77.632;2024-01-30T14:49:41;10.05;59.99
70294;DHT22;74367;35.280;-77.632;2024-01-30T14:52:07;9.63;60.90
70294;DHT22;74367;35.280;-77.632;2024-01-30T14:54:36;8.95;62.47
70294;DHT22;74367;35.280;-77.632;2024-01-30T14:57:02;9.23;62.90
70294;DHT22;74367;35.280;-77.632;2024-01-30T14:59:28;9.28;62.50
70294;DHT22;74367;35.280;-77.632;2024-01-30T15:01:54;8.84;63.80
70294;DHT22;74367;35.280;-77.632;2024-01-30T15:04:20;8.70;62.53
70294;DHT22;74367;35.280;-77.632;2024-01-30T15:06:46;8.60;64.05
70294;DHT22;74367;35.280;-77.632;2024-01-30T15:09:14;8.87;63.45
70294;DHT22;74367;35.280;-77.632;2024-01-30T15:11:44;9.49;61.56
70294;DHT22;74367;35.280;-77.632;2024-01-30T15:14:11;9.94;60.78